sensor_id;sensor_type;location;lat;lon;timestamp;P1;durP1;ratioP1;P2;durP2;ratioP2
4724;SDS011;2376;53.544;10.226;2023-07-13T00:02:20;3.53;;;2.63;;
4724;SDS011;2376;53.544;10.226;2023-07-13T00:04:47;4.40;;;3.10;;
4724;SDS011;2376;53.544;10.226;2023-07-13T00:07:14;4.33;;;2.97;;
4724;SDS011;2376;53.544;10.226;2023-07-13T00:09:41;3.00;;;2.80;;
4724;SDS011;2376;53.544;10.226;2023-07-13T00:12:21;2.30;;;2.10;;
4724;SDS011;2376;53.544;10.226;2023-07-13T00:14:51;6.50;;;2.77;;
4724;SDS011;2376;53.544;10.226;2023-07-13T00:17:18;5.93;;;2.80;;
4724;SDS011;2376;53.544;10.226;2023-07-13T00:19:44;6.20;;;2.80;;
4724;SDS011;2376;53.544;10.226;2023-07-13T00:22:11;5.17;;;2.37;;
4724;SDS011;2376;53.544;10.226;2023-07-13T00:24:38;3.30;;;2.50;;
4724;SDS011;2376;53.544;10.226;2023-07-13T00:27:06;6.03;;;3.00;;
4724;SDS011;2376;53.544;10.226;2023-07-13T00:29:34;5.00;;;2.50;;
4724;SDS011;2376;53.544;10.226;2023-07-13T00:32:02;3.53;;;3.07;;
4724;SDS011;2376;53.544;10.226;2023-07-13T00:34:30;2.90;;;2.50;;
4724;SDS011;2376;53.544;10.226;2023-07-13T00:36:57;3.20;;;2.60;;
4724;SDS011;2376;53.544;10.226;2023-07-13T00:39:24;4.70;;;2.70;;
4724;SDS011;2376;53.544;10.226;2023-07-13T00:41:51;3.40;;;2.83;;
4724;SDS011;2376;53.544;10.226;2023-07-13T00:44:19;3.83;;;2.60;;
4724;SDS011;2376;53.544;10.226;2023-07-13T00:46:48;3.47;;;2.93;;
4724;SDS011;2376;53.544;10.226;2023-07-13T00:49:17;2.80;;;2.60;;
4724;SDS011;2376;53.544;10.226;2023-07-13T00:51:47;5.23;;;2.90;;
4724;SDS011;2376;53.544;10.226;2023-07-13T00:54:17;6.40;;;3.27;;
4724;SDS011;2376;53.544;10.226;2023-07-13T00:56:48;5.87;;;2.80;;
4724;SDS011;2376;53.544;10.226;2023-07-13T00:59:18;3.20;;;3.00;;
4724;SDS011;2376;53.544;10.226;2023-07-13T01:01:46;5.00;;;3.10;;
4724;SDS011;2376;53.544;10.226;2023-07-13T01:04:13;5.37;;;3.43;;
4724;SDS011;2376;53.544;10.226;2023-07-13T01:06:41;7.23;;;3.20;;
4724;SDS011;2376;53.544;10.226;2023-07-13T01:09:09;3.63;;;3.33;;
4724;SDS011;2376;53.544;10.226;2023-07-13T01:11:37;3.10;;;2.90;;
4724;SDS011;2376;53.544;10.226;2023-07-13T01:14:04;3.87;;;3.47;;
4724;SDS011;2376;53.544;10.226;2023-07-13T01:16:31;3.47;;;3.27;;
4724;SDS011;2376;53.544;10.226;2023-07-13T01:18:59;3.20;;;3.00;;
4724;SDS011;2376;53.544;10.226;2023-07-13T01:21:31;4.00;;;3.70;;
4724;SDS011;2376;53.544;10.226;2023-07-13T01:23:59;4.17;;;3.00;;
4724;SDS011;2376;53.544;10.226;2023-07-13T01:26:27;4.47;;;4.17;;
4724;SDS011;2376;53.544;10.226;2023-07-13T01:28:53;3.77;;;3.20;;
4724;SDS011;2376;53.544;10.226;2023-07-13T01:31:22;3.23;;;2.93;;
4724;SDS011;2376;53.544;10.226;2023-07-13T01:33:48;8.70;;;4.63;;
4724;SDS011;2376;53.544;10.226;2023-07-13T01:36:15;3.77;;;3.50;;
4724;SDS011;2376;53.544;10.226;2023-07-13T01:38:43;3.50;;;3.20;;
4724;SDS011;2376;53.544;10.226;2023-07-13T01:41:10;3.73;;;3.33;;
4724;SDS011;2376;53.544;10.226;2023-07-13T01:43:37;3.30;;;3.10;;
4724;SDS011;2376;53.544;10.226;2023-07-13T01:46:04;3.90;;;3.70;;
4724;SDS011;2376;53.544;10.226;2023-07-13T01:48:31;4.80;;;3.23;;
4724;SDS011;2376;53.544;10.226;2023-07-13T01:50:57;4.07;;;3.77;;
4724;SDS011;2376;53.544;10.226;2023-07-13T01:53:24;4.00;;;3.53;;
4724;SDS011;2376;53.544;10.226;2023-07-13T01:55:53;3.07;;;2.87;;
4724;SDS011;2376;53.544;10.226;2023-07-13T01:58:19;4.83;;;3.17;;
4724;SDS011;2376;53.544;10.226;2023-07-13T02:00:47;10.33;;;4.60;;
4724;SDS011;2376;53.544;10.226;2023-07-13T02:03:15;4.73;;;3.73;;
4724;SDS011;2376;53.544;10.226;2023-07-13T02:05:43;4.03;;;3.80;;
4724;SDS011;2376;53.544;10.226;2023-07-13T02:08:10;4.00;;;3.70;;
4724;SDS011;2376;53.544;10.226;2023-07-13T02:10:37;6.90;;;4.53;;
4724;SDS011;2376;53.544;10.226;2023-07-13T02:13:05;4.30;;;3.90;;
4724;SDS011;2376;53.544;10.226;2023-07-13T02:15:32;12.27;;;4.00;;
4724;SDS011;2376;53.544;10.226;2023-07-13T02:17:59;5.33;;;4.17;;
4724;SDS011;2376;53.544;10.226;2023-07-13T02:20:25;3.70;;;3.40;;
4724;SDS011;2376;53.544;10.226;2023-07-13T02:22:52;4.80;;;4.33;;
4724;SDS011;2376;53.544;10.226;2023-07-13T02:25:19;4.93;;;4.63;;
4724;SDS011;2376;53.544;10.226;2023-07-13T02:27:45;4.90;;;4.57;;
4724;SDS011;2376;53.544;10.226;2023-07-13T02:30:13;4.97;;;4.37;;
4724;SDS011;2376;53.544;10.226;2023-07-13T02:32:40;4.90;;;4.10;;
4724;SDS011;2376;53.544;10.226;2023-07-13T02:35:08;5.47;;;5.00;;
4724;SDS011;2376;53.544;10.226;2023-07-13T02:37:35;5.23;;;4.83;;
4724;SDS011;2376;53.544;10.226;2023-07-13T02:40:02;5.20;;;4.80;;
4724;SDS011;2376;53.544;10.226;2023-07-13T02:42:33;5.27;;;4.63;;
4724;SDS011;2376;53.544;10.226;2023-07-13T02:45:00;8.37;;;4.77;;
4724;SDS011;2376;53.544;10.226;2023-07-13T02:47:28;4.70;;;4.23;;
4724;SDS011;2376;53.544;10.226;2023-07-13T02:49:54;7.40;;;4.30;;
4724;SDS011;2376;53.544;10.226;2023-07-13T02:52:21;5.30;;;4.80;;
4724;SDS011;2376;53.544;10.226;2023-07-13T02:54:48;5.60;;;5.10;;
4724;SDS011;2376;53.544;10.226;2023-07-13T02:57:14;5.70;;;5.33;;
4724;SDS011;2376;53.544;10.226;2023-07-13T02:59:41;5.23;;;4.77;;
4724;SDS011;2376;53.544;10.226;2023-07-13T03:02:08;5.83;;;5.37;;
4724;SDS011;2376;53.544;10.226;2023-07-13T03:04:36;4.50;;;4.30;;
4724;SDS011;2376;53.544;10.226;2023-07-13T03:07:04;6.43;;;5.77;;
4724;SDS011;2376;53.544;10.226;2023-07-13T03:09:31;5.33;;;4.83;;
4724;SDS011;2376;53.544;10.226;2023-07-13T03:11:59;7.73;;;5.23;;
4724;SDS011;2376;53.544;10.226;2023-07-13T03:14:26;9.53;;;5.37;;
4724;SDS011;2376;53.544;10.226;2023-07-13T03:16:53;7.30;;;5.10;;
4724;SDS011;2376;53.544;10.226;2023-07-13T03:19:20;5.50;;;4.60;;
4724;SDS011;2376;53.544;10.226;2023-07-13T03:21:48;5.40;;;5.00;;
4724;SDS011;2376;53.544;10.226;2023-07-13T03:24:15;6.33;;;4.83;;
4724;SDS011;2376;53.544;10.226;2023-07-13T03:26:42;5.10;;;4.70;;
4724;SDS011;2376;53.544;10.226;2023-07-13T03:29:08;5.50;;;5.20;;
4724;SDS011;2376;53.544;10.226;2023-07-13T03:31:36;5.50;;;5.00;;
4724;SDS011;2376;53.544;10.226;2023-07-13T03:34:03;13.77;;;5.40;;
4724;SDS011;2376;53.544;10.226;2023-07-13T03:36:30;5.33;;;4.83;;
4724;SDS011;2376;53.544;10.226;2023-07-13T03:39:00;5.20;;;4.87;;
4724;SDS011;2376;53.544;10.226;2023-07-13T03:41:29;6.43;;;5.43;;
4724;SDS011;2376;53.544;10.226;2023-07-13T03:43:56;5.43;;;5.03;;
4724;SDS011;2376;53.544;10.226;2023-07-13T03:46:23;5.53;;;5.00;;
4724;SDS011;2376;53.544;10.226;2023-07-13T03:48:50;5.77;;;4.90;;
4724;SDS011;2376;53.544;10.226;2023-07-13T03:51:17;5.07;;;4.67;;
4724;SDS011;2376;53.544;10.226;2023-07-13T03:53:45;5.37;;;4.93;;
4724;SDS011;2376;53.544;10.226;2023-07-13T03:56:14;4.80;;;4.40;;
4724;SDS011;2376;53.544;10.226;2023-07-13T03:58:43;6.10;;;5.50;;
4724;SDS011;2376;53.544;10.226;2023-07-13T04:01:11;5.53;;;4.83;;
4724;SDS011;2376;53.544;10.226;2023-07-13T04:03:39;7.00;;;5.43;;
4724;SDS011;2376;53.544;10.226;2023-07-13T04:06:07;4.97;;;4.63;;
4724;SDS011;2376;53.544;10.226;2023-07-13T04:08:40;5.60;;;5.13;;
4724;SDS011;2376;53.544;10.226;2023-07-13T04:11:07;4.90;;;4.60;;
4724;SDS011;2376;53.544;10.226;2023-07-13T04:13:35;8.67;;;5.40;;
4724;SDS011;2376;53.544;10.226;2023-07-13T04:16:01;6.30;;;5.80;;
4724;SDS011;2376;53.544;10.226;2023-07-13T04:18:29;4.60;;;4.07;;
4724;SDS011;2376;53.544;10.226;2023-07-13T04:20:56;6.30;;;5.87;;
4724;SDS011;2376;53.544;10.226;2023-07-13T04:23:22;7.30;;;5.17;;
4724;SDS011;2376;53.544;10.226;2023-07-13T04:25:51;4.70;;;4.40;;
4724;SDS011;2376;53.544;10.226;2023-07-13T04:28:18;5.47;;;5.17;;
4724;SDS011;2376;53.544;10.226;2023-07-13T04:30:47;5.40;;;5.00;;
4724;SDS011;2376;53.544;10.226;2023-07-13T04:33:14;4.80;;;4.40;;
4724;SDS011;2376;53.544;10.226;2023-07-13T04:35:42;5.40;;;4.93;;
4724;SDS011;2376;53.544;10.226;2023-07-13T04:38:09;4.17;;;3.77;;
4724;SDS011;2376;53.544;10.226;2023-07-13T04:40:36;5.20;;;3.80;;
4724;SDS011;2376;53.544;10.226;2023-07-13T04:43:03;5.43;;;5.03;;
4724;SDS011;2376;53.544;10.226;2023-07-13T04:45:29;4.50;;;4.10;;
4724;SDS011;2376;53.544;10.226;2023-07-13T04:47:58;5.97;;;4.30;;
4724;SDS011;2376;53.544;10.226;2023-07-13T04:50:24;4.63;;;4.33;;
4724;SDS011;2376;53.544;10.226;2023-07-13T04:52:51;5.10;;;4.30;;
4724;SDS011;2376;53.544;10.226;2023-07-13T04:55:18;5.87;;;4.60;;
4724;SDS011;2376;53.544;10.226;2023-07-13T04:57:46;6.20;;;4.83;;
4724;SDS011;2376;53.544;10.226;2023-07-13T05:00:13;4.63;;;4.27;;
4724;SDS011;2376;53.544;10.226;2023-07-13T05:02:43;5.53;;;4.77;;
4724;SDS011;2376;53.544;10.226;2023-07-13T05:05:11;8.43;;;4.60;;
4724;SDS011;2376;53.544;10.226;2023-07-13T05:07:38;5.33;;;4.77;;
4724;SDS011;2376;53.544;10.226;2023-07-13T05:10:05;4.97;;;4.53;;
4724;SDS011;2376;53.544;10.226;2023-07-13T05:12:33;4.70;;;4.20;;
4724;SDS011;2376;53.544;10.226;2023-07-13T05:15:00;5.00;;;4.57;;
4724;SDS011;2376;53.544;10.226;2023-07-13T05:17:27;4.67;;;4.27;;
4724;SDS011;2376;53.544;10.226;2023-07-13T05:19:53;5.00;;;4.60;;
4724;SDS011;2376;53.544;10.226;2023-07-13T05:22:21;10.70;;;6.03;;
4724;SDS011;2376;53.544;10.226;2023-07-13T05:24:48;4.80;;;4.50;;
4724;SDS011;2376;53.544;10.226;2023-07-13T05:27:15;5.37;;;4.83;;
4724;SDS011;2376;53.544;10.226;2023-07-13T05:29:42;5.70;;;4.23;;
4724;SDS011;2376;53.544;10.226;2023-07-13T05:32:09;9.23;;;5.50;;
4724;SDS011;2376;53.544;10.226;2023-07-13T05:34:36;5.63;;;4.93;;
4724;SDS011;2376;53.544;10.226;2023-07-13T05:37:03;6.13;;;4.77;;
4724;SDS011;2376;53.544;10.226;2023-07-13T05:39:31;7.00;;;4.57;;
4724;SDS011;2376;53.544;10.226;2023-07-13T05:41:58;6.50;;;4.50;;
4724;SDS011;2376;53.544;10.226;2023-07-13T05:44:25;8.30;;;5.07;;
4724;SDS011;2376;53.544;10.226;2023-07-13T05:46:51;8.77;;;5.37;;
4724;SDS011;2376;53.544;10.226;2023-07-13T05:49:18;5.33;;;4.83;;
4724;SDS011;2376;53.544;10.226;2023-07-13T05:51:44;5.70;;;4.83;;
4724;SDS011;2376;53.544;10.226;2023-07-13T05:54:11;7.83;;;5.03;;
4724;SDS011;2376;53.544;10.226;2023-07-13T05:56:39;6.73;;;4.87;;
4724;SDS011;2376;53.544;10.226;2023-07-13T05:59:06;6.90;;;4.00;;
4724;SDS011;2376;53.544;10.226;2023-07-13T06:01:33;4.97;;;3.50;;
4724;SDS011;2376;53.544;10.226;2023-07-13T06:03:59;11.23;;;5.07;;
4724;SDS011;2376;53.544;10.226;2023-07-13T06:06:27;16.87;;;5.57;;
4724;SDS011;2376;53.544;10.226;2023-07-13T06:08:53;4.50;;;3.63;;
4724;SDS011;2376;53.544;10.226;2023-07-13T06:11:21;5.70;;;4.03;;
4724;SDS011;2376;53.544;10.226;2023-07-13T06:13:51;7.00;;;4.17;;
4724;SDS011;2376;53.544;10.226;2023-07-13T06:16:19;7.03;;;3.97;;
4724;SDS011;2376;53.544;10.226;2023-07-13T06:18:46;9.77;;;4.43;;
4724;SDS011;2376;53.544;10.226;2023-07-13T06:21:13;12.40;;;3.60;;
4724;SDS011;2376;53.544;10.226;2023-07-13T06:23:42;16.97;;;4.10;;
4724;SDS011;2376;53.544;10.226;2023-07-13T06:26:10;7.47;;;3.97;;
4724;SDS011;2376;53.544;10.226;2023-07-13T06:28:37;9.77;;;3.27;;
4724;SDS011;2376;53.544;10.226;2023-07-13T06:31:06;6.00;;;3.60;;
4724;SDS011;2376;53.544;10.226;2023-07-13T06:33:34;10.10;;;3.20;;
4724;SDS011;2376;53.544;10.226;2023-07-13T06:36:01;7.00;;;3.50;;
4724;SDS011;2376;53.544;10.226;2023-07-13T06:38:28;8.37;;;3.23;;
4724;SDS011;2376;53.544;10.226;2023-07-13T06:40:54;5.00;;;3.70;;
4724;SDS011;2376;53.544;10.226;2023-07-13T06:43:21;8.60;;;4.13;;
4724;SDS011;2376;53.544;10.226;2023-07-13T06:45:50;7.50;;;3.00;;
4724;SDS011;2376;53.544;10.226;2023-07-13T06:48:18;4.40;;;2.80;;
4724;SDS011;2376;53.544;10.226;2023-07-13T06:50:46;6.67;;;3.50;;
4724;SDS011;2376;53.544;10.226;2023-07-13T06:53:14;6.87;;;3.07;;
4724;SDS011;2376;53.544;10.226;2023-07-13T06:55:43;8.63;;;3.03;;
4724;SDS011;2376;53.544;10.226;2023-07-13T06:58:10;6.00;;;3.37;;
4724;SDS011;2376;53.544;10.226;2023-07-13T07:00:38;5.63;;;3.13;;
4724;SDS011;2376;53.544;10.226;2023-07-13T07:03:05;4.97;;;3.13;;
4724;SDS011;2376;53.544;10.226;2023-07-13T07:05:33;7.93;;;2.70;;
4724;SDS011;2376;53.544;10.226;2023-07-13T07:08:00;11.73;;;3.00;;
4724;SDS011;2376;53.544;10.226;2023-07-13T07:10:29;5.73;;;2.87;;
4724;SDS011;2376;53.544;10.226;2023-07-13T07:12:57;6.40;;;3.30;;
4724;SDS011;2376;53.544;10.226;2023-07-13T07:15:23;6.17;;;2.97;;
4724;SDS011;2376;53.544;10.226;2023-07-13T07:17:50;6.17;;;2.67;;
4724;SDS011;2376;53.544;10.226;2023-07-13T07:20:17;4.53;;;2.33;;
4724;SDS011;2376;53.544;10.226;2023-07-13T07:22:45;6.90;;;2.80;;
4724;SDS011;2376;53.544;10.226;2023-07-13T07:25:11;7.97;;;2.87;;
4724;SDS011;2376;53.544;10.226;2023-07-13T07:27:38;8.77;;;2.87;;
4724;SDS011;2376;53.544;10.226;2023-07-13T07:30:05;5.57;;;2.77;;
4724;SDS011;2376;53.544;10.226;2023-07-13T07:32:33;6.13;;;2.40;;
4724;SDS011;2376;53.544;10.226;2023-07-13T07:34:59;3.87;;;2.20;;
4724;SDS011;2376;53.544;10.226;2023-07-13T07:37:26;10.73;;;3.30;;
4724;SDS011;2376;53.544;10.226;2023-07-13T07:39:54;3.27;;;2.90;;
4724;SDS011;2376;53.544;10.226;2023-07-13T07:42:21;6.73;;;2.77;;
4724;SDS011;2376;53.544;10.226;2023-07-13T07:44:48;8.07;;;2.67;;
4724;SDS011;2376;53.544;10.226;2023-07-13T07:47:14;4.97;;;2.93;;
4724;SDS011;2376;53.544;10.226;2023-07-13T07:49:41;8.17;;;3.03;;
4724;SDS011;2376;53.544;10.226;2023-07-13T07:52:08;7.97;;;4.13;;
4724;SDS011;2376;53.544;10.226;2023-07-13T07:54:35;3.30;;;2.43;;
4724;SDS011;2376;53.544;10.226;2023-07-13T07:57:03;9.60;;;3.30;;
4724;SDS011;2376;53.544;10.226;2023-07-13T07:59:30;4.10;;;2.73;;
4724;SDS011;2376;53.544;10.226;2023-07-13T08:01:56;3.17;;;2.77;;
4724;SDS011;2376;53.544;10.226;2023-07-13T08:04:23;4.43;;;2.73;;
4724;SDS011;2376;53.544;10.226;2023-07-13T08:06:50;8.73;;;3.63;;
4724;SDS011;2376;53.544;10.226;2023-07-13T08:09:17;7.23;;;2.87;;
4724;SDS011;2376;53.544;10.226;2023-07-13T08:11:43;8.47;;;4.93;;
4724;SDS011;2376;53.544;10.226;2023-07-13T08:14:11;7.57;;;3.93;;
4724;SDS011;2376;53.544;10.226;2023-07-13T08:16:38;3.13;;;2.57;;
4724;SDS011;2376;53.544;10.226;2023-07-13T08:19:05;6.37;;;2.77;;
4724;SDS011;2376;53.544;10.226;2023-07-13T08:21:31;6.17;;;2.87;;
4724;SDS011;2376;53.544;10.226;2023-07-13T08:23:58;7.30;;;3.40;;
4724;SDS011;2376;53.544;10.226;2023-07-13T08:26:25;7.60;;;3.33;;
4724;SDS011;2376;53.544;10.226;2023-07-13T08:28:51;5.13;;;2.80;;
4724;SDS011;2376;53.544;10.226;2023-07-13T08:31:19;6.00;;;3.27;;
4724;SDS011;2376;53.544;10.226;2023-07-13T08:33:46;6.80;;;3.37;;
4724;SDS011;2376;53.544;10.226;2023-07-13T08:36:13;3.33;;;3.03;;
4724;SDS011;2376;53.544;10.226;2023-07-13T08:38:39;7.33;;;3.17;;
4724;SDS011;2376;53.544;10.226;2023-07-13T08:41:10;7.50;;;2.80;;
4724;SDS011;2376;53.544;10.226;2023-07-13T08:43:38;7.40;;;2.70;;
4724;SDS011;2376;53.544;10.226;2023-07-13T08:46:08;9.43;;;3.03;;
4724;SDS011;2376;53.544;10.226;2023-07-13T08:48:41;7.40;;;2.70;;
4724;SDS011;2376;53.544;10.226;2023-07-13T08:51:12;5.07;;;2.97;;
4724;SDS011;2376;53.544;10.226;2023-07-13T08:53:54;3.93;;;2.30;;
4724;SDS011;2376;53.544;10.226;2023-07-13T08:56:25;7.37;;;2.60;;
4724;SDS011;2376;53.544;10.226;2023-07-13T08:58:55;7.90;;;2.47;;
4724;SDS011;2376;53.544;10.226;2023-07-13T09:01:23;3.37;;;2.90;;
4724;SDS011;2376;53.544;10.226;2023-07-13T09:03:59;2.57;;;2.37;;
4724;SDS011;2376;53.544;10.226;2023-07-13T09:06:31;4.70;;;2.03;;
4724;SDS011;2376;53.544;10.226;2023-07-13T09:09:20;4.63;;;2.37;;
4724;SDS011;2376;53.544;10.226;2023-07-13T09:12:00;3.27;;;2.40;;
4724;SDS011;2376;53.544;10.226;2023-07-13T09:14:44;3.70;;;2.30;;
4724;SDS011;2376;53.544;10.226;2023-07-13T09:17:14;4.00;;;2.60;;
4724;SDS011;2376;53.544;10.226;2023-07-13T09:19:46;3.63;;;2.30;;
4724;SDS011;2376;53.544;10.226;2023-07-13T09:22:19;5.53;;;3.20;;
4724;SDS011;2376;53.544;10.226;2023-07-13T09:24:50;5.07;;;2.53;;
4724;SDS011;2376;53.544;10.226;2023-07-13T09:27:23;3.87;;;2.43;;
4724;SDS011;2376;53.544;10.226;2023-07-13T09:29:57;4.60;;;2.87;;
4724;SDS011;2376;53.544;10.226;2023-07-13T09:32:30;2.93;;;2.33;;
4724;SDS011;2376;53.544;10.226;2023-07-13T09:35:00;5.80;;;2.57;;
4724;SDS011;2376;53.544;10.226;2023-07-13T09:37:29;3.07;;;2.47;;
4724;SDS011;2376;53.544;10.226;2023-07-13T09:39:59;7.57;;;2.50;;
4724;SDS011;2376;53.544;10.226;2023-07-13T09:42:30;4.13;;;2.20;;
4724;SDS011;2376;53.544;10.226;2023-07-13T09:44:59;5.73;;;3.23;;
4724;SDS011;2376;53.544;10.226;2023-07-13T09:47:29;4.90;;;2.63;;
4724;SDS011;2376;53.544;10.226;2023-07-13T09:49:58;3.10;;;2.90;;
4724;SDS011;2376;53.544;10.226;2023-07-13T09:52:27;3.33;;;2.80;;
4724;SDS011;2376;53.544;10.226;2023-07-13T09:55:11;3.30;;;2.57;;
4724;SDS011;2376;53.544;10.226;2023-07-13T09:57:50;7.60;;;2.70;;
4724;SDS011;2376;53.544;10.226;2023-07-13T10:00:20;4.63;;;2.40;;
4724;SDS011;2376;53.544;10.226;2023-07-13T10:02:57;3.63;;;3.30;;
4724;SDS011;2376;53.544;10.226;2023-07-13T10:05:26;2.87;;;2.67;;
4724;SDS011;2376;53.544;10.226;2023-07-13T10:07:53;4.37;;;2.67;;
4724;SDS011;2376;53.544;10.226;2023-07-13T10:10:23;3.10;;;2.33;;
4724;SDS011;2376;53.544;10.226;2023-07-13T10:12:50;4.60;;;2.63;;
4724;SDS011;2376;53.544;10.226;2023-07-13T10:15:17;7.60;;;2.90;;
4724;SDS011;2376;53.544;10.226;2023-07-13T10:17:46;3.87;;;3.23;;
4724;SDS011;2376;53.544;10.226;2023-07-13T10:20:14;3.83;;;2.77;;
4724;SDS011;2376;53.544;10.226;2023-07-13T10:22:44;5.30;;;2.73;;
4724;SDS011;2376;53.544;10.226;2023-07-13T10:25:16;5.70;;;2.53;;
4724;SDS011;2376;53.544;10.226;2023-07-13T10:27:47;5.93;;;2.73;;
4724;SDS011;2376;53.544;10.226;2023-07-13T10:30:17;4.20;;;2.83;;
4724;SDS011;2376;53.544;10.226;2023-07-13T10:32:47;4.20;;;2.43;;
4724;SDS011;2376;53.544;10.226;2023-07-13T10:35:16;3.20;;;2.53;;
4724;SDS011;2376;53.544;10.226;2023-07-13T10:37:48;4.83;;;2.60;;
4724;SDS011;2376;53.544;10.226;2023-07-13T10:40:19;3.10;;;2.30;;
4724;SDS011;2376;53.544;10.226;2023-07-13T10:42:50;3.20;;;2.90;;
4724;SDS011;2376;53.544;10.226;2023-07-13T10:45:21;3.37;;;2.47;;
4724;SDS011;2376;53.544;10.226;2023-07-13T10:47:50;3.20;;;2.47;;
4724;SDS011;2376;53.544;10.226;2023-07-13T10:50:21;2.40;;;2.20;;
4724;SDS011;2376;53.544;10.226;2023-07-13T10:52:52;5.53;;;2.87;;
4724;SDS011;2376;53.544;10.226;2023-07-13T10:55:35;2.20;;;2.00;;
4724;SDS011;2376;53.544;10.226;2023-07-13T10:58:11;7.47;;;3.20;;
4724;SDS011;2376;53.544;10.226;2023-07-13T11:00:44;4.67;;;2.27;;
4724;SDS011;2376;53.544;10.226;2023-07-13T11:03:15;3.73;;;2.43;;
4724;SDS011;2376;53.544;10.226;2023-07-13T11:05:47;3.30;;;2.30;;
4724;SDS011;2376;53.544;10.226;2023-07-13T11:08:18;4.03;;;1.87;;
4724;SDS011;2376;53.544;10.226;2023-07-13T11:10:51;3.23;;;1.80;;
4724;SDS011;2376;53.544;10.226;2023-07-13T11:16:11;2.33;;;2.07;;
4724;SDS011;2376;53.544;10.226;2023-07-13T11:18:39;4.93;;;2.00;;
4724;SDS011;2376;53.544;10.226;2023-07-13T11:21:14;3.30;;;2.10;;
4724;SDS011;2376;53.544;10.226;2023-07-13T11:23:44;2.17;;;1.97;;
4724;SDS011;2376;53.544;10.226;2023-07-13T11:29:07;2.23;;;2.00;;
4724;SDS011;2376;53.544;10.226;2023-07-13T11:31:34;7.50;;;2.17;;
4724;SDS011;2376;53.544;10.226;2023-07-13T11:34:01;3.07;;;2.03;;
4724;SDS011;2376;53.544;10.226;2023-07-13T11:36:30;1.80;;;1.70;;
4724;SDS011;2376;53.544;10.226;2023-07-13T11:39:04;4.97;;;1.80;;
4724;SDS011;2376;53.544;10.226;2023-07-13T11:41:42;5.07;;;2.00;;
4724;SDS011;2376;53.544;10.226;2023-07-13T11:44:11;2.07;;;1.77;;
4724;SDS011;2376;53.544;10.226;2023-07-13T11:46:43;1.50;;;1.40;;
4724;SDS011;2376;53.544;10.226;2023-07-13T11:49:12;2.30;;;1.70;;
4724;SDS011;2376;53.544;10.226;2023-07-13T11:51:41;2.80;;;1.97;;
4724;SDS011;2376;53.544;10.226;2023-07-13T11:54:14;2.63;;;1.30;;
4724;SDS011;2376;53.544;10.226;2023-07-13T11:56:48;2.33;;;1.67;;
4724;SDS011;2376;53.544;10.226;2023-07-13T11:59:15;5.83;;;1.70;;
4724;SDS011;2376;53.544;10.226;2023-07-13T12:01:46;3.63;;;1.80;;
4724;SDS011;2376;53.544;10.226;2023-07-13T12:04:19;1.73;;;1.63;;
4724;SDS011;2376;53.544;10.226;2023-07-13T12:06:53;1.97;;;1.80;;
4724;SDS011;2376;53.544;10.226;2023-07-13T12:09:25;3.20;;;1.60;;
4724;SDS011;2376;53.544;10.226;2023-07-13T12:11:54;5.37;;;2.30;;
4724;SDS011;2376;53.544;10.226;2023-07-13T12:14:22;3.90;;;1.97;;
4724;SDS011;2376;53.544;10.226;2023-07-13T12:16:51;2.20;;;2.10;;
4724;SDS011;2376;53.544;10.226;2023-07-13T12:19:20;3.03;;;1.50;;
4724;SDS011;2376;53.544;10.226;2023-07-13T12:21:48;5.17;;;1.87;;
4724;SDS011;2376;53.544;10.226;2023-07-13T12:24:15;2.30;;;1.60;;
4724;SDS011;2376;53.544;10.226;2023-07-13T12:26:49;6.97;;;1.90;;
4724;SDS011;2376;53.544;10.226;2023-07-13T12:29:17;6.70;;;1.80;;
4724;SDS011;2376;53.544;10.226;2023-07-13T12:31:45;2.13;;;1.60;;
4724;SDS011;2376;53.544;10.226;2023-07-13T12:34:13;4.50;;;2.50;;
4724;SDS011;2376;53.544;10.226;2023-07-13T12:36:45;2.40;;;1.60;;
4724;SDS011;2376;53.544;10.226;2023-07-13T12:39:14;3.07;;;1.50;;
4724;SDS011;2376;53.544;10.226;2023-07-13T12:41:44;2.43;;;1.90;;
4724;SDS011;2376;53.544;10.226;2023-07-13T12:44:12;2.27;;;2.10;;
4724;SDS011;2376;53.544;10.226;2023-07-13T12:46:50;5.30;;;1.73;;
4724;SDS011;2376;53.544;10.226;2023-07-13T12:49:21;4.83;;;1.80;;
4724;SDS011;2376;53.544;10.226;2023-07-13T12:51:50;2.53;;;1.97;;
4724;SDS011;2376;53.544;10.226;2023-07-13T12:54:21;4.70;;;1.77;;
4724;SDS011;2376;53.544;10.226;2023-07-13T12:56:50;2.40;;;2.20;;
4724;SDS011;2376;53.544;10.226;2023-07-13T12:59:19;3.80;;;2.30;;
4724;SDS011;2376;53.544;10.226;2023-07-13T13:01:47;4.23;;;2.20;;
4724;SDS011;2376;53.544;10.226;2023-07-13T13:04:15;4.00;;;2.20;;
4724;SDS011;2376;53.544;10.226;2023-07-13T13:06:46;2.10;;;1.90;;
4724;SDS011;2376;53.544;10.226;2023-07-13T13:09:14;2.50;;;2.03;;
4724;SDS011;2376;53.544;10.226;2023-07-13T13:11:46;2.57;;;1.97;;
4724;SDS011;2376;53.544;10.226;2023-07-13T13:14:14;2.97;;;1.90;;
4724;SDS011;2376;53.544;10.226;2023-07-13T13:16:44;3.33;;;2.03;;
4724;SDS011;2376;53.544;10.226;2023-07-13T13:19:16;2.27;;;1.90;;
4724;SDS011;2376;53.544;10.226;2023-07-13T13:21:46;2.20;;;2.10;;
4724;SDS011;2376;53.544;10.226;2023-07-13T13:24:15;5.20;;;2.37;;
4724;SDS011;2376;53.544;10.226;2023-07-13T13:26:45;4.47;;;2.53;;
4724;SDS011;2376;53.544;10.226;2023-07-13T13:29:15;2.13;;;2.03;;
4724;SDS011;2376;53.544;10.226;2023-07-13T13:31:43;8.50;;;2.50;;
4724;SDS011;2376;53.544;10.226;2023-07-13T13:34:10;2.53;;;2.33;;
4724;SDS011;2376;53.544;10.226;2023-07-13T13:36:39;2.87;;;2.10;;
4724;SDS011;2376;53.544;10.226;2023-07-13T13:39:12;2.83;;;2.60;;
4724;SDS011;2376;53.544;10.226;2023-07-13T13:41:45;5.27;;;2.33;;
4724;SDS011;2376;53.544;10.226;2023-07-13T13:44:14;2.53;;;2.20;;
4724;SDS011;2376;53.544;10.226;2023-07-13T13:46:42;3.03;;;2.77;;
4724;SDS011;2376;53.544;10.226;2023-07-13T13:49:11;3.47;;;2.47;;
4724;SDS011;2376;53.544;10.226;2023-07-13T13:51:41;3.30;;;2.30;;
4724;SDS011;2376;53.544;10.226;2023-07-13T13:54:09;2.57;;;2.37;;
4724;SDS011;2376;53.544;10.226;2023-07-13T13:56:38;2.50;;;2.00;;
4724;SDS011;2376;53.544;10.226;2023-07-13T13:59:04;2.40;;;2.20;;
4724;SDS011;2376;53.544;10.226;2023-07-13T14:01:34;2.07;;;1.97;;
4724;SDS011;2376;53.544;10.226;2023-07-13T14:04:02;4.30;;;2.47;;
4724;SDS011;2376;53.544;10.226;2023-07-13T14:06:30;3.13;;;2.23;;
4724;SDS011;2376;53.544;10.226;2023-07-13T14:08:58;3.00;;;1.80;;
4724;SDS011;2376;53.544;10.226;2023-07-13T14:11:25;2.67;;;2.10;;
4724;SDS011;2376;53.544;10.226;2023-07-13T14:13:53;3.70;;;2.20;;
4724;SDS011;2376;53.544;10.226;2023-07-13T14:16:25;2.17;;;2.07;;
4724;SDS011;2376;53.544;10.226;2023-07-13T14:18:55;2.47;;;1.87;;
4724;SDS011;2376;53.544;10.226;2023-07-13T14:21:24;2.17;;;2.03;;
4724;SDS011;2376;53.544;10.226;2023-07-13T14:23:52;2.40;;;2.20;;
4724;SDS011;2376;53.544;10.226;2023-07-13T14:26:19;1.70;;;1.60;;
4724;SDS011;2376;53.544;10.226;2023-07-13T14:28:50;1.80;;;1.70;;
4724;SDS011;2376;53.544;10.226;2023-07-13T14:31:19;2.20;;;2.00;;
4724;SDS011;2376;53.544;10.226;2023-07-13T14:33:47;2.80;;;1.80;;
4724;SDS011;2376;53.544;10.226;2023-07-13T14:36:20;4.70;;;2.30;;
4724;SDS011;2376;53.544;10.226;2023-07-13T14:38:52;4.20;;;2.50;;
4724;SDS011;2376;53.544;10.226;2023-07-13T14:41:20;4.17;;;2.27;;
4724;SDS011;2376;53.544;10.226;2023-07-13T14:43:47;2.10;;;2.00;;
4724;SDS011;2376;53.544;10.226;2023-07-13T14:46:18;2.20;;;2.00;;
4724;SDS011;2376;53.544;10.226;2023-07-13T14:48:59;3.37;;;2.27;;
4724;SDS011;2376;53.544;10.226;2023-07-13T14:51:31;2.60;;;2.40;;
4724;SDS011;2376;53.544;10.226;2023-07-13T14:54:01;5.40;;;2.30;;
4724;SDS011;2376;53.544;10.226;2023-07-13T14:56:29;3.20;;;1.90;;
4724;SDS011;2376;53.544;10.226;2023-07-13T14:58:56;2.63;;;2.13;;
4724;SDS011;2376;53.544;10.226;2023-07-13T15:01:23;1.80;;;1.70;;
4724;SDS011;2376;53.544;10.226;2023-07-13T15:03:50;2.40;;;2.20;;
4724;SDS011;2376;53.544;10.226;2023-07-13T15:06:18;2.50;;;2.17;;
4724;SDS011;2376;53.544;10.226;2023-07-13T15:08:47;2.50;;;1.87;;
4724;SDS011;2376;53.544;10.226;2023-07-13T15:11:14;1.80;;;1.70;;
4724;SDS011;2376;53.544;10.226;2023-07-13T15:13:42;3.53;;;2.10;;
4724;SDS011;2376;53.544;10.226;2023-07-13T15:16:10;2.87;;;2.13;;